Choctaw, Mississippi
Current Conditions -  °F | °C
As of 8:56 PM on Friday 28 Nov 2014 (Local Time) from KNMM Reporting Station
Clear Clear  
Wind Chill:   Ceiling: Unl
Heat Index:   Visibility: 10mi
Dew Point: -1°   Wind: 3mph
Humidity: 65%   Direction: 150°SSE
Pressure: 30.25"   Gusts: NA
Location:  32.751°N, 89.1208°W
Report Text: KNMM 290256Z AUTO 15003KT 10SM CLR 05/M01 A3025 RMK AO2 SLP256 T00501011 58006
Loading
Personal Weather Stations






























Interactive Weather Map New forecast layout! Learn more

10-Day Weather Forecast

Advertisements
Track Severe Weather on mobile